Eden, Vermont
Current Conditions -  °F | °C
As of 9:54 AM on Monday 22 Dec 2014 (Local Time) from KMVL Reporting Station
Overcast Overcast  
Wind Chill: -3°   Ceiling: 3300
Heat Index: -3°   Visibility: 9mi
Dew Point: -6°   Wind: 0mph
Humidity: 81%   Direction: NA
Pressure: 30.38"   Gusts: NA
Location:  44.71°N, 72.55°W
Report Text: KMVL 221454Z AUTO 00000KT 9SM OVC033 M03/M06 A3038 RMK AO2 SLP302 T10331061 53002 TSNO
Loading
Personal Weather Stations






























Interactive Weather Map New forecast layout! Learn more

10-Day Weather Forecast

Advertisements
Track Severe Weather on mobile